Time;durP1;ratioP1;P1;durP2;ratioP2;P2;SDS_P1;SDS_P2;PMS_P1;PMS_P2;Temp;Humidity;BMP_temperature;BMP_pressure;BME280_temperature;BME280_humidity;BME280_pressure;Samples;Min_cycle;Max_cycle;Signal;HPM_P1;HPM_P2
2023/12/21 00:01:43;;;;;;;;;0.00;0.00;;;;;10.34;100.00;101607.69;5022634;28;45734;-77
2023/12/21 00:04:08;;;;;;;;;0.67;0.33;;;;;10.28;100.00;101607.91;5043149;28;46100;-77
2023/12/21 00:06:34;;;;;;;;;3.67;1.00;;;;;10.31;100.00;101613.09;5023913;28;45452;-79
2023/12/21 00:08:59;;;;;;;;;0.00;0.00;;;;;10.24;100.00;101597.50;5041039;28;45461;-78
2023/12/21 00:11:24;;;;;;;;;1.67;0.00;;;;;10.25;100.00;101591.28;5041013;28;45491;-77
2023/12/21 00:13:50;;;;;;;;;4.00;1.67;;;;;10.29;100.00;101592.91;5020465;28;45561;-77
2023/12/21 00:16:16;;;;;;;;;4.00;1.67;;;;;10.23;100.00;101579.91;5016720;28;45365;-78
2023/12/21 00:18:42;;;;;;;;;5.00;1.00;;;;;10.22;100.00;101589.59;5021541;28;45415;-78
2023/12/21 00:21:07;;;;;;;;;0.00;0.00;;;;;10.22;100.00;101583.44;5038984;28;45341;-77
2023/12/21 00:23:32;;;;;;;;;0.67;0.67;;;;;10.06;100.00;101548.72;5040183;28;45552;-78
2023/12/21 00:25:58;;;;;;;;;1.00;1.00;;;;;10.18;100.00;101564.19;5020946;28;45430;-77
2023/12/21 00:28:23;;;;;;;;;3.00;1.00;;;;;10.08;100.00;101549.50;5020395;28;48397;-77
2023/12/21 00:30:48;;;;;;;;;1.00;1.00;;;;;10.11;100.00;101564.44;5030722;28;45480;-78
2023/12/21 00:33:14;;;;;;;;;2.00;1.00;;;;;9.97;100.00;101534.94;5033509;28;50140;-77
2023/12/21 00:35:39;;;;;;;;;2.00;1.00;;;;;10.07;100.00;101555.72;5037223;28;45272;-77
2023/12/21 00:38:04;;;;;;;;;1.33;1.00;;;;;10.11;100.00;101559.13;5025204;28;45313;-77
2023/12/21 00:40:30;;;;;;;;;2.00;0.00;;;;;10.10;100.00;101552.13;5039595;28;45439;-80
2023/12/21 00:42:57;;;;;;;;;2.33;2.00;;;;;10.09;100.00;101547.72;5042971;28;45298;-77
2023/12/21 00:45:22;;;;;;;;;1.67;1.67;;;;;10.02;100.00;101540.91;5039139;28;45246;-78
2023/12/21 00:47:48;;;;;;;;;3.00;0.33;;;;;9.99;100.00;101541.91;5039165;28;45522;-77
2023/12/21 00:50:14;;;;;;;;;0.67;0.00;;;;;10.06;100.00;101538.13;5038272;28;45424;-77
2023/12/21 00:52:40;;;;;;;;;4.00;1.33;;;;;10.05;100.00;101524.97;5038714;28;47739;-77
2023/12/21 00:55:06;;;;;;;;;4.00;0.00;;;;;10.03;100.00;101514.47;5038717;28;45452;-77
2023/12/21 00:57:31;;;;;;;;;2.00;0.33;;;;;10.03;100.00;101511.81;5037849;28;46479;-77
2023/12/21 00:59:56;;;;;;;;;4.00;1.00;;;;;9.92;100.00;101490.16;5027541;28;45478;-77
2023/12/21 01:02:22;;;;;;;;;3.67;1.00;;;;;10.09;100.00;101526.59;5020133;28;45468;-77
2023/12/21 01:04:47;;;;;;;;;2.33;1.33;;;;;10.04;100.00;101520.63;5039371;28;45562;-77
2023/12/21 01:07:12;;;;;;;;;2.00;1.67;;;;;10.04;100.00;101510.91;5016784;28;45885;-77
2023/12/21 01:09:38;;;;;;;;;1.00;1.00;;;;;10.07;100.00;101525.78;5036541;28;45595;-77
2023/12/21 01:12:07;;;;;;;;;1.33;1.00;;;;;10.04;100.00;101513.56;5038595;28;46380;-77
2023/12/21 01:14:33;;;;;;;;;1.00;1.00;;;;;10.00;100.00;101490.78;5027566;28;45381;-77
2023/12/21 01:16:58;;;;;;;;;2.33;2.33;;;;;10.13;100.00;101501.78;5037582;28;45432;-77
2023/12/21 01:19:23;;;;;;;;;4.67;1.00;;;;;10.05;100.00;101490.59;5037839;28;50850;-76
2023/12/21 01:21:49;;;;;;;;;3.00;1.00;;;;;10.06;100.00;101484.41;5037833;28;46015;-77
2023/12/21 01:24:14;;;;;;;;;1.67;1.33;;;;;10.10;100.00;101481.63;5019774;28;45390;-77
2023/12/21 01:26:40;;;;;;;;;3.00;1.67;;;;;10.09;100.00;101481.66;5038919;28;45409;-77
2023/12/21 01:29:05;;;;;;;;;1.00;1.00;;;;;10.13;100.00;101491.22;5021955;28;45354;-77
2023/12/21 01:31:31;;;;;;;;;1.00;1.00;;;;;10.15;100.00;101478.84;5025966;28;47026;-77
2023/12/21 01:33:56;;;;;;;;;2.00;1.00;;;;;10.05;100.00;101467.69;5040126;28;45541;-77
2023/12/21 01:36:21;;;;;;;;;1.00;1.00;;;;;9.86;100.00;101442.81;5037481;28;45385;-77
2023/12/21 01:38:47;;;;;;;;;1.67;1.00;;;;;10.12;100.00;101468.34;5040278;28;45356;-77
2023/12/21 01:41:12;;;;;;;;;1.00;1.00;;;;;10.16;100.00;101476.16;5049009;28;46450;-76
2023/12/21 01:43:37;;;;;;;;;0.00;0.00;;;;;10.03;100.00;101451.03;5040341;28;45385;-77
2023/12/21 01:46:03;;;;;;;;;1.67;1.67;;;;;10.16;100.00;101472.66;5038774;28;45435;-77
2023/12/21 01:48:30;;;;;;;;;1.00;0.67;;;;;10.14;100.00;101461.28;5021713;28;45433;-76
2023/12/21 01:50:57;;;;;;;;;2.00;0.00;;;;;10.16;100.00;101462.94;5039756;28;46248;-77
2023/12/21 01:53:23;;;;;;;;;1.00;1.00;;;;;10.11;100.00;101438.41;5049581;28;45342;-77
2023/12/21 01:55:48;;;;;;;;;1.00;1.00;;;;;10.15;100.00;101441.84;5040638;28;45521;-77
2023/12/21 01:58:14;;;;;;;;;1.67;1.67;;;;;10.06;100.00;101418.34;5045101;28;45392;-76
2023/12/21 02:00:39;;;;;;;;;1.00;0.33;;;;;10.18;100.00;101433.78;5040527;28;45354;-76
2023/12/21 02:03:05;;;;;;;;;2.00;0.00;;;;;10.18;100.00;101439.06;5040487;28;45354;-77
2023/12/21 02:05:30;;;;;;;;;1.67;1.33;;;;;10.12;100.00;101411.06;5040259;28;45532;-76
2023/12/21 02:07:56;;;;;;;;;4.00;1.00;;;;;10.15;100.00;101410.97;5037590;28;51276;-76
2023/12/21 02:10:21;;;;;;;;;3.33;1.00;;;;;10.03;100.00;101398.19;5020275;28;47134;-76
2023/12/21 02:12:46;;;;;;;;;1.67;1.00;;;;;10.03;100.00;101405.25;5039766;28;45417;-78
2023/12/21 02:15:12;;;;;;;;;0.33;0.33;;;;;9.95;100.00;101381.72;5039357;28;45448;-78
2023/12/21 02:17:40;;;;;;;;;1.00;1.00;;;;;9.97;100.00;101394.88;5029387;28;45451;-76
2023/12/21 02:20:07;;;;;;;;;1.00;0.00;;;;;10.09;100.00;101412.94;5043028;28;46158;-76
2023/12/21 02:22:34;;;;;;;;;1.00;0.00;;;;;10.09;100.00;101410.31;5043171;28;45415;-76
2023/12/21 02:25:00;;;;;;;;;1.00;0.00;;;;;10.09;100.00;101399.72;5042899;28;45383;-77
2023/12/21 02:27:25;;;;;;;;;2.00;1.00;;;;;10.05;100.00;101396.34;5042622;28;45388;-76
2023/12/21 02:29:51;;;;;;;;;0.67;0.00;;;;;10.06;100.00;101389.28;5020584;28;48195;-78
2023/12/21 02:32:16;;;;;;;;;4.00;0.33;;;;;10.08;100.00;101403.31;5017571;28;56629;-76
2023/12/21 02:34:42;;;;;;;;;0.33;0.33;;;;;10.04;100.00;101399.91;5043121;28;45491;-76
2023/12/21 02:37:07;;;;;;;;;1.33;0.00;;;;;10.07;100.00;101406.88;5042107;28;45443;-77
2023/12/21 02:39:32;;;;;;;;;4.33;0.00;;;;;10.04;100.00;101394.63;5040222;28;56775;-76
2023/12/21 02:41:58;;;;;;;;;0.00;0.00;;;;;10.08;100.00;101390.94;5041530;28;45432;-76
2023/12/21 02:44:23;;;;;;;;;0.00;0.00;;;;;9.94;100.00;101372.09;5046329;28;54792;-77
2023/12/21 02:46:48;;;;;;;;;1.00;0.00;;;;;10.12;100.00;101389.91;5039863;28;45292;-78
2023/12/21 02:49:14;;;;;;;;;0.00;0.00;;;;;10.14;100.00;101389.91;5043539;28;45297;-76
2023/12/21 02:51:39;;;;;;;;;0.00;0.00;;;;;10.01;100.00;101364.81;5021200;28;50395;-76
2023/12/21 02:54:04;;;;;;;;;0.67;0.67;;;;;10.14;100.00;101387.28;5038986;28;47700;-76
2023/12/21 02:56:29;;;;;;;;;0.00;0.00;;;;;10.07;100.00;101378.66;5022875;28;46168;-76
2023/12/21 02:58:55;;;;;;;;;0.00;0.00;;;;;10.17;100.00;101387.16;5040506;28;46777;-77
2023/12/21 03:01:20;;;;;;;;;0.00;0.00;;;;;10.17;100.00;101390.66;5019353;28;58523;-76
2023/12/21 03:03:45;;;;;;;;;0.00;0.00;;;;;10.14;100.00;101382.84;5020192;28;49426;-76
2023/12/21 03:06:11;;;;;;;;;0.67;0.67;;;;;10.12;100.00;101374.06;5039423;28;45555;-76
2023/12/21 03:08:36;;;;;;;;;0.00;0.00;;;;;10.07;100.00;101346.09;5022604;28;46967;-77
2023/12/21 03:11:02;;;;;;;;;0.33;0.33;;;;;9.94;100.00;101335.97;5032996;28;53882;-78
2023/12/21 03:13:27;;;;;;;;;0.00;0.00;;;;;10.13;100.00;101365.22;5042451;28;45311;-78
2023/12/21 03:15:52;;;;;;;;;2.67;0.33;;;;;10.14;100.00;101363.47;5046364;28;45618;-78
2023/12/21 03:18:18;;;;;;;;;0.00;0.00;;;;;10.13;100.00;101362.59;5020822;28;63532;-78
2023/12/21 03:20:43;;;;;;;;;0.00;0.00;;;;;10.22;100.00;101358.75;5051427;28;45218;-76
2023/12/21 03:23:09;;;;;;;;;2.00;0.00;;;;;10.13;100.00;101343.22;5042489;28;45436;-76
2023/12/21 03:25:35;;;;;;;;;0.00;0.00;;;;;10.19;100.00;101357.09;5040318;28;48637;-76
2023/12/21 03:28:00;;;;;;;;;0.00;0.00;;;;;10.16;100.00;101344.00;5040592;28;63397;-76
2023/12/21 03:30:25;;;;;;;;;0.00;0.00;;;;;10.16;100.00;101340.47;5041386;28;45295;-77
2023/12/21 03:32:50;;;;;;;;;0.00;0.00;;;;;10.23;100.00;101349.91;5017669;28;49106;-77
2023/12/21 03:35:17;;;;;;;;;0.33;0.00;;;;;10.24;100.00;101349.84;5039453;28;54189;-77
2023/12/21 03:37:43;;;;;;;;;1.00;0.00;;;;;10.25;100.00;101340.13;5039367;28;45454;-77
2023/12/21 03:40:08;;;;;;;;;0.00;0.00;;;;;10.22;100.00;101337.59;5040222;28;45323;-77
2023/12/21 03:42:33;;;;;;;;;0.00;0.00;;;;;10.27;100.00;101333.03;5046882;28;45396;-77
2023/12/21 03:44:59;;;;;;;;;2.00;0.00;;;;;10.29;100.00;101336.47;5038893;28;45455;-77
2023/12/21 03:47:24;;;;;;;;;0.00;0.00;;;;;10.24;100.00;101326.06;5042430;28;45423;-76
2023/12/21 03:49:49;;;;;;;;;0.00;0.00;;;;;10.19;100.00;101317.44;5025340;28;44801;-76
2023/12/21 03:52:15;;;;;;;;;0.00;0.00;;;;;10.28;100.00;101319.75;5022949;28;47510;-76
2023/12/21 03:54:40;;;;;;;;;0.00;0.00;;;;;10.30;100.00;101309.13;5040041;28;45464;-76
2023/12/21 03:57:06;;;;;;;;;0.00;0.00;;;;;10.19;100.00;101284.84;5037336;28;46253;-76
2023/12/21 03:59:32;;;;;;;;;0.00;0.00;;;;;10.31;100.00;101289.69;5022679;28;45372;-77
2023/12/21 04:01:57;;;;;;;;;0.67;0.00;;;;;10.24;100.00;101265.25;5040356;28;45550;-76
2023/12/21 04:04:23;;;;;;;;;1.00;0.00;;;;;10.25;100.00;101260.84;5039772;28;45293;-77
2023/12/21 04:06:48;;;;;;;;;0.00;0.00;;;;;10.32;100.00;101255.25;5038991;28;45974;-76
2023/12/21 04:09:13;;;;;;;;;0.00;0.00;;;;;10.18;100.00;101222.34;5021718;28;45516;-76
2023/12/21 04:11:39;;;;;;;;;0.00;0.00;;;;;10.33;100.00;101237.63;5021498;28;53632;-76
2023/12/21 04:14:04;;;;;;;;;0.00;0.00;;;;;10.13;100.00;101208.41;5021183;28;53791;-76
2023/12/21 04:16:29;;;;;;;;;0.00;0.00;;;;;10.24;100.00;101222.13;5038226;28;54267;-76
2023/12/21 04:18:55;;;;;;;;;0.00;0.00;;;;;10.30;100.00;101229.81;5038742;28;45456;-77
2023/12/21 04:21:20;;;;;;;;;0.00;0.00;;;;;10.24;100.00;101230.88;5041170;28;45353;-76
2023/12/21 04:23:45;;;;;;;;;0.00;0.00;;;;;10.36;100.00;101241.00;5039714;28;45454;-76
2023/12/21 04:26:21;;;;;;;;;0.00;0.00;;;;;10.30;100.00;101220.09;5039702;28;45797;-76
2023/12/21 04:28:47;;;;;;;;;0.00;0.00;;;;;10.38;100.00;101233.88;5047547;28;45443;-76
2023/12/21 04:31:20;;;;;;;;;0.00;0.00;;;;;10.36;100.00;101227.78;5022332;28;45532;-77
2023/12/21 04:33:47;;;;;;;;;0.00;0.00;;;;;10.42;100.00;101229.31;5020003;28;45738;-76
2023/12/21 04:36:13;;;;;;;;;0.00;0.00;;;;;10.35;100.00;101211.97;5039146;28;46242;-76
2023/12/21 04:38:39;;;;;;;;;0.00;0.00;;;;;10.31;100.00;101195.38;5039419;28;45349;-76
2023/12/21 04:41:04;;;;;;;;;0.00;0.00;;;;;10.45;100.00;101219.47;5038858;28;45242;-76
2023/12/21 04:43:29;;;;;;;;;0.00;0.00;;;;;10.47;100.00;101221.22;5038832;28;45274;-76
2023/12/21 04:45:55;;;;;;;;;0.00;0.00;;;;;10.45;100.00;101218.63;5019680;28;55188;-76
2023/12/21 04:48:20;;;;;;;;;0.00;0.00;;;;;10.43;100.00;101197.53;5017312;28;45322;-76
2023/12/21 04:50:46;;;;;;;;;0.00;0.00;;;;;10.44;100.00;101201.03;5037178;28;50620;-78
2023/12/21 04:53:12;;;;;;;;;0.00;0.00;;;;;10.54;100.00;101210.31;5041212;28;44850;-76
2023/12/21 04:55:37;;;;;;;;;0.00;0.00;;;;;10.45;100.00;101197.47;5042556;28;49453;-76
2023/12/21 04:58:02;;;;;;;;;0.00;0.00;;;;;10.58;100.00;101232.22;5039592;28;45222;-76
2023/12/21 05:00:29;;;;;;;;;0.00;0.00;;;;;10.48;100.00;101197.34;5041951;28;45472;-76
2023/12/21 05:02:55;;;;;;;;;0.00;0.00;;;;;10.59;100.00;101204.84;5038167;28;46185;-75
2023/12/21 05:05:21;;;;;;;;;1.00;0.00;;;;;10.59;100.00;101200.41;5038696;28;46724;-75
2023/12/21 05:07:47;;;;;;;;;0.00;0.00;;;;;10.56;100.00;101189.09;5020419;28;45424;-75
2023/12/21 05:10:12;;;;;;;;;0.00;0.00;;;;;10.50;100.00;101176.13;5020757;28;45337;-76
2023/12/21 05:12:37;;;;;;;;;0.00;0.00;;;;;10.63;100.00;101185.28;5038986;28;45540;-76
2023/12/21 05:15:03;;;;;;;;;0.00;0.00;;;;;10.60;100.00;101175.66;5020323;28;45480;-76
2023/12/21 05:17:28;;;;;;;;;0.00;0.00;;;;;10.59;100.00;101188.97;5014878;28;45452;-76
2023/12/21 05:19:54;;;;;;;;;0.00;0.00;;;;;10.60;100.00;101182.78;5035846;28;50605;-77
2023/12/21 05:22:19;;;;;;;;;0.00;0.00;;;;;10.59;100.00;101175.75;5038850;28;45427;-76
2023/12/21 05:24:44;;;;;;;;;0.00;0.00;;;;;10.72;100.00;101190.19;5040021;28;45328;-76
2023/12/21 05:27:10;;;;;;;;;0.00;0.00;;;;;10.72;100.00;101191.06;5038421;28;45293;-77
2023/12/21 05:29:35;;;;;;;;;1.00;0.00;;;;;10.62;100.00;101168.56;5038286;28;45376;-76
2023/12/21 05:32:03;;;;;;;;;0.00;0.00;;;;;10.61;100.00;101166.81;5035547;28;54530;-78
2023/12/21 05:34:28;;;;;;;;;0.00;0.00;;;;;10.64;100.00;101174.63;5015633;28;48368;-78
2023/12/21 05:36:53;;;;;;;;;0.00;0.00;;;;;10.77;100.00;101201.44;5037282;28;51586;-77
2023/12/21 05:39:19;;;;;;;;;0.00;0.00;;;;;10.82;100.00;101208.28;5035487;28;45480;-77
2023/12/21 05:41:44;;;;;;;;;0.00;0.00;;;;;10.83;100.00;101193.25;5037816;28;46354;-77
2023/12/21 05:44:10;;;;;;;;;0.00;0.00;;;;;10.84;100.00;101192.31;5037029;28;46277;-77
2023/12/21 05:46:35;;;;;;;;;0.00;0.00;;;;;10.85;100.00;101176.38;5019457;28;45417;-77
2023/12/21 05:49:00;;;;;;;;;0.00;0.00;;;;;10.86;100.00;101164.03;5038222;28;45890;-79
2023/12/21 05:51:26;;;;;;;;;0.00;0.00;;;;;10.86;100.00;101153.44;5021122;28;45596;-77
2023/12/21 05:53:53;;;;;;;;;0.00;0.00;;;;;10.81;100.00;101137.75;5024493;28;49453;-79
2023/12/21 05:56:21;;;;;;;;;0.00;0.00;;;;;10.90;100.00;101132.06;5036834;28;45623;-80
2023/12/21 05:58:54;;;;;;;;;0.00;0.00;;;;;10.86;100.00;101134.91;5041669;28;45346;-80
2023/12/21 06:01:45;;;;;;;;;0.00;0.00;;;;;10.88;100.00;101133.06;5040275;28;45341;-79
2023/12/21 06:04:15;;;;;;;;;0.00;0.00;;;;;10.35;100.00;101034.84;5038197;28;45380;-78
2023/12/21 06:06:52;;;;;;;;;0.00;0.00;;;;;10.55;100.00;101071.88;5043828;28;45734;-79
2023/12/21 06:09:23;;;;;;;;;0.00;0.00;;;;;10.82;100.00;101105.09;5042832;28;45384;-80
2023/12/21 06:12:01;;;;;;;;;0.00;0.00;;;;;10.82;100.00;101106.88;5050048;28;45453;-76
2023/12/21 06:14:53;;;;;;;;;;;;;;;;;;;;;
2023/12/21 06:17:19;;;;;;;;;0.00;0.00;;;;;10.61;100.00;101074.25;5043016;28;71300;-79
2023/12/21 06:19:58;;;;;;;;;0.00;0.00;;;;;10.38;100.00;101042.63;5041960;28;45653;-76
2023/12/21 06:22:27;;;;;;;;;0.00;0.00;;;;;10.45;100.00;101055.53;5016210;28;45330;-77
2023/12/21 06:25:00;;;;;;;;;0.00;0.00;;;;;10.56;100.00;101078.88;5022047;28;47478;-78
2023/12/21 06:27:50;;;;;;;;;0.00;0.00;;;;;10.97;100.00;101149.41;5022100;28;45520;-78
2023/12/21 06:30:22;;;;;;;;;0.67;0.00;;;;;10.47;100.00;101046.69;5041759;28;45647;-78
2023/12/21 06:33:03;;;;;;;;;0.00;0.00;;;;;10.44;100.00;101060.88;5040300;28;45508;-77
2023/12/21 06:35:36;;;;;;;;;0.00;0.00;;;;;10.55;100.00;101081.59;5040973;28;45299;-77
2023/12/21 06:38:22;;;;;;;;;0.00;0.00;;;;;10.87;100.00;101132.19;5039107;28;45420;-76
2023/12/21 06:40:50;;;;;;;;;0.00;0.00;;;;;10.81;100.00;101121.00;5039708;28;45355;-76
2023/12/21 06:43:29;;;;;;;;;0.00;0.00;;;;;10.44;100.00;101056.47;5021169;28;45447;-77
2023/12/21 06:45:55;;;;;;;;;0.00;0.00;;;;;10.55;100.00;101071.00;5040709;28;46432;-77
2023/12/21 06:48:20;;;;;;;;;0.00;0.00;;;;;10.61;100.00;101061.03;5035132;28;45434;-77
2023/12/21 06:50:45;;;;;;;;;0.00;0.00;;;;;10.53;100.00;101046.44;5026380;28;45724;-76
2023/12/21 06:53:17;;;;;;;;;0.00;0.00;;;;;10.95;100.00;101127.44;5019299;28;45404;-76
2023/12/21 06:55:42;;;;;;;;;1.00;0.00;;;;;10.65;100.00;101077.63;5039245;28;46132;-77
2023/12/21 06:58:08;;;;;;;;;2.00;0.00;;;;;10.93;100.00;101123.97;5021458;28;45534;-78
2023/12/21 07:00:33;;;;;;;;;0.00;0.00;;;;;11.01;100.00;101113.06;5020099;28;45436;-77
2023/12/21 07:03:26;;;;;;;;;0.00;0.00;;;;;10.92;100.00;101114.34;5028849;28;45582;-77
2023/12/21 07:06:09;;;;;;;;;0.67;0.00;;;;;11.19;100.00;101144.00;5022892;28;47173;-76
2023/12/21 07:08:37;;;;;;;;;0.00;0.00;;;;;10.75;100.00;101089.53;5024017;28;45409;-77
2023/12/21 07:11:18;;;;;;;;;0.00;0.00;;;;;10.72;100.00;101094.97;5035687;28;45811;-77
2023/12/21 07:13:48;;;;;;;;;1.00;0.00;;;;;10.69;100.00;101079.22;5023102;28;45535;-77
2023/12/21 07:16:17;;;;;;;;;0.00;0.00;;;;;10.82;100.00;101122.75;5027140;28;45715;-77
2023/12/21 07:18:52;;;;;;;;;;;;;;;;;;;;;
2023/12/21 07:21:29;;;;;;;;;0.67;0.00;;;;;10.79;100.00;101094.63;5038928;28;69239;-77
2023/12/21 07:24:04;;;;;;;;;0.00;0.00;;;;;10.69;100.00;101072.16;5024787;28;45527;-77
2023/12/21 07:26:29;;;;;;;;;0.00;0.00;;;;;10.71;100.00;101061.47;5016638;28;47133;-76
2023/12/21 07:29:05;;;;;;;;;;;;;;;;;;;;;
2023/12/21 07:31:54;;;;;;;;;0.00;0.00;;;;;10.86;100.00;101082.81;5040833;28;69300;-77
2023/12/21 07:34:28;;;;;;;;;0.00;0.00;;;;;10.69;100.00;101055.41;5048671;28;45360;-77
2023/12/21 07:36:54;;;;;;;;;0.00;0.00;;;;;10.85;100.00;101080.28;5038756;28;46436;-77
2023/12/21 07:39:19;;;;;;;;;0.00;0.00;;;;;10.74;100.00;101046.34;5039203;28;45476;-76
2023/12/21 07:42:00;;;;;;;;;;;;;;;;;;;;;
2023/12/21 07:44:46;;;;;;;;;0.00;0.00;;;;;10.85;100.00;101064.41;5034402;28;72012;-77
2023/12/21 07:47:24;;;;;;;;;0.00;0.00;;;;;10.70;100.00;101046.56;5019037;28;45511;-78
2023/12/21 07:49:49;;;;;;;;;3.00;0.00;;;;;10.71;100.00;101030.59;5008566;28;45375;-77
2023/12/21 07:52:15;;;;;;;;;0.00;0.00;;;;;11.14;100.00;101108.94;5014026;28;45527;-77
2023/12/21 07:54:40;;;;;;;;;0.00;0.00;;;;;11.11;100.00;101097.63;5021747;28;45655;-77
2023/12/21 07:57:15;;;;;;;;;0.00;0.00;;;;;11.01;100.00;101086.59;5018317;28;45319;-77
2023/12/21 07:59:41;;;;;;;;;0.00;0.00;;;;;10.74;100.00;101050.75;5012127;28;45461;-77
2023/12/21 08:02:17;;;;;;;;;0.00;0.00;;;;;10.88;100.00;101082.78;5038159;28;45440;-76
2023/12/21 08:04:49;;;;;;;;;0.00;0.00;;;;;10.74;100.00;101056.91;5038513;28;45368;-76
2023/12/21 08:07:27;;;;;;;;;0.00;0.00;;;;;11.04;100.00;101085.59;5016063;28;46902;-77
2023/12/21 08:10:22;;;;;;;;;0.00;0.00;;;;;11.30;100.00;101119.72;5021526;28;45274;-77
2023/12/21 08:12:48;;;;;;;;;0.00;0.00;;;;;10.62;100.00;100995.75;5023424;28;45328;-76
2023/12/21 08:15:26;;;;;;;;;0.00;0.00;;;;;10.71;100.00;101001.50;5024734;28;45575;-76
2023/12/21 08:18:16;;;;;;;;;;;;;;;;;;;;;
2023/12/21 08:20:52;;;;;;;;;;;;;;;;;;;;;
2023/12/21 08:23:18;;;;;;;;;0.00;0.00;;;;;11.25;100.00;101092.59;5038151;28;69225;-77
2023/12/21 08:25:49;;;;;;;;;0.00;0.00;;;;;11.10;100.00;101054.41;5021610;28;45298;-77
2023/12/21 08:28:23;;;;;;;;;0.00;0.00;;;;;10.90;100.00;101025.34;5023116;28;48430;-77
2023/12/21 08:31:08;;;;;;;;;1.00;0.00;;;;;11.18;100.00;101064.69;5031046;28;45398;-77
2023/12/21 08:33:38;;;;;;;;;0.00;0.00;;;;;10.76;100.00;101003.97;5035562;28;45285;-77
2023/12/21 08:40:04;;;;;;;;;;;;;;;;;;;;;
2023/12/21 08:42:40;;;;;;;;;0.00;0.00;;;;;11.35;100.00;101107.13;5021364;28;73174;-76
2023/12/21 08:45:19;;;;;;;;;0.00;0.00;;;;;11.19;100.00;101077.81;5039014;28;45372;-77
2023/12/21 08:47:55;;;;;;;;;1.00;0.00;;;;;11.07;100.00;101054.56;5030800;28;45439;-76
2023/12/21 08:50:30;;;;;;;;;0.00;0.00;;;;;10.70;100.00;101005.06;5037669;28;47710;-77
2023/12/21 08:53:05;;;;;;;;;0.00;0.00;;;;;11.06;100.00;101059.94;5038718;28;45868;-77
2023/12/21 08:55:56;;;;;;;;;0.33;0.00;;;;;10.89;100.00;101021.00;5038728;28;45472;-77
2023/12/21 08:58:36;;;;;;;;;0.00;0.00;;;;;11.51;100.00;101110.81;5037645;28;45566;-76
2023/12/21 09:01:40;;;;;;;;;0.00;0.00;;;;;10.87;100.00;101026.34;5050184;28;46404;-78
2023/12/21 09:04:31;;;;;;;;;0.00;0.00;;;;;11.15;100.00;101055.09;5044187;28;45474;-78
2023/12/21 09:07:25;;;;;;;;;0.00;0.00;;;;;11.62;100.00;101131.47;5030955;28;45448;-78
2023/12/21 09:10:15;;;;;;;;;0.00;0.00;;;;;11.06;100.00;101020.25;5018730;28;45444;-77
2023/12/21 09:12:43;;;;;;;;;0.00;0.00;;;;;11.31;100.00;101045.50;5032863;28;45519;-77
2023/12/21 09:15:17;;;;;;;;;0.00;0.00;;;;;11.57;100.00;101110.50;5040998;28;45590;-77
2023/12/21 09:17:53;;;;;;;;;0.00;0.00;;;;;11.04;100.00;101000.91;5015093;28;45476;-77
2023/12/21 09:20:30;;;;;;;;;0.00;0.00;;;;;11.72;100.00;101123.06;5020107;28;45294;-77
2023/12/21 09:23:29;;;;;;;;;0.00;0.00;;;;;11.19;100.00;101008.16;5020419;28;45807;-78
2023/12/21 09:29:57;;;;;;;;;0.00;0.00;;;;;11.38;100.00;101048.75;4973243;28;45437;-78
2023/12/21 09:32:55;;;;;;;;;0.00;0.00;;;;;11.23;100.00;101010.56;4990387;28;46280;-78
2023/12/21 09:35:52;;;;;;;;;;;;;;;;;;;;;
2023/12/21 09:38:31;;;;;;;;;0.00;0.00;;;;;11.16;100.00;101014.44;5042229;28;72704;-78
2023/12/21 09:41:26;;;;;;;;;0.00;0.00;;;;;11.11;100.00;100999.69;5044714;28;45584;-77
2023/12/21 09:44:02;;;;;;;;;;;;;;;;;;;;;
2023/12/21 09:54:04;;;;;;;;;0.00;0.00;;;;;11.14;100.00;100989.84;4991294;28;45770;-77
2023/12/21 09:59:55;;;;;;;;;0.00;0.00;;;;;11.16;100.00;100971.25;5049811;28;45423;-76
2023/12/21 10:03:01;;;;;;;;;0.00;0.00;;;;;11.36;100.00;101047.94;5036909;28;45384;-76
2023/12/21 10:05:54;;;;;;;;;;;;;;;;;;;;;
2023/12/21 10:09:05;;;;;;;;;0.00;0.00;;;;;11.72;100.00;101059.47;5038666;28;71721;-77
2023/12/21 10:12:25;;;;;;;;;0.67;0.00;;;;;11.38;100.00;100995.78;5048360;28;45503;-77
2023/12/21 10:16:22;;;;;;;;;0.00;0.00;;;;;11.35;100.00;101007.34;5002954;28;45262;-77
2023/12/21 10:19:04;;;;;;;;;0.00;0.00;;;;;11.79;100.00;101084.75;5021864;28;45332;-77
2023/12/21 10:22:34;;;;;;;;;0.00;0.00;;;;;11.25;100.00;100970.81;5021436;28;45435;-77
2023/12/21 10:25:25;;;;;;;;;0.00;0.00;;;;;11.32;100.00;100977.53;4991654;28;46307;-77
2023/12/21 10:28:04;;;;;;;;;0.00;0.00;;;;;11.42;100.00;101011.44;5007864;28;45357;-77
2023/12/21 10:31:18;;;;;;;;;;;;;;;;;;;;;
2023/12/21 10:34:08;;;;;;;;;0.00;0.00;;;;;11.26;100.00;100968.06;5025171;28;71787;-78
2023/12/21 10:37:13;;;;;;;;;0.00;0.00;;;;;11.32;100.00;100990.78;5035415;28;45554;-77
2023/12/21 10:46:10;;;;;;;;;0.00;0.00;;;;;11.93;100.00;101106.16;5010782;28;45468;-77
2023/12/21 10:49:16;;;;;;;;;1.67;0.00;;;;;11.91;100.00;101078.03;5021234;28;46751;-77
2023/12/21 10:52:04;;;;;;;;;2.00;0.00;;;;;11.62;100.00;101036.09;5039810;28;45370;-77
2023/12/21 10:55:01;;;;;;;;;1.00;1.00;;;;;11.34;100.00;100979.16;5051731;28;45325;-77
2023/12/21 10:58:00;;;;;;;;;1.00;0.00;;;;;11.73;100.00;101045.31;5022507;28;45388;-77
2023/12/21 11:00:37;;;;;;;;;1.00;1.00;;;;;11.46;100.00;100989.16;5040414;28;46031;-78
2023/12/21 11:03:23;;;;;;;;;1.00;0.00;;;;;11.67;100.00;101026.16;5020493;28;45460;-78
2023/12/21 11:06:16;;;;;;;;;2.00;0.00;;;;;11.55;100.00;100987.03;5043451;28;45609;-77
2023/12/21 11:09:18;;;;;;;;;0.00;0.00;;;;;11.45;100.00;100982.16;5040699;28;45533;-78
2023/12/21 11:12:01;;;;;;;;;1.00;1.00;;;;;11.59;100.00;100983.28;5023731;28;45336;-77
2023/12/21 11:14:48;;;;;;;;;2.00;1.00;;;;;11.46;100.00;100944.16;5021932;28;45483;-77
2023/12/21 11:17:53;;;;;;;;;0.33;0.00;;;;;11.90;100.00;101002.97;5040015;28;45483;-77
2023/12/21 11:20:35;;;;;;;;;1.00;1.00;;;;;12.04;100.00;101049.13;5021648;28;45500;-77
2023/12/21 11:23:31;;;;;;;;;0.33;0.00;;;;;12.17;100.00;101055.53;5042901;28;46257;-77
2023/12/21 11:26:15;;;;;;;;;3.67;0.67;;;;;11.40;100.00;100912.66;5048713;28;45470;-77
2023/12/21 11:29:33;;;;;;;;;2.00;1.00;;;;;11.72;100.00;100952.63;5041990;28;45483;-76
2023/12/21 11:32:11;;;;;;;;;3.33;2.00;;;;;11.52;100.00;100907.72;5039177;28;45240;-77
2023/12/21 11:38:24;;;;;;;;;;;;;;;;;;;;;
2023/12/21 11:41:13;;;;;;;;;2.33;1.00;;;;;12.21;100.00;100969.56;5036330;28;67774;-77
2023/12/21 11:44:14;;;;;;;;;1.00;1.00;;;;;11.50;100.00;100866.25;5035501;28;45531;-77
2023/12/21 11:46:40;;;;;;;;;2.00;0.00;;;;;11.57;100.00;100856.22;5021192;28;47257;-76
2023/12/21 11:49:29;;;;;;;;;0.67;0.00;;;;;11.50;100.00;100858.31;5022858;28;45791;-76
2023/12/21 11:52:12;;;;;;;;;1.00;1.00;;;;;12.13;100.00;100958.53;5018136;28;45426;-76
2023/12/21 11:55:33;;;;;;;;;;;;;;;;;;;;;
2023/12/21 11:58:32;;;;;;;;;1.00;1.00;;;;;11.58;100.00;100855.28;4957166;28;75274;-77
2023/12/21 12:01:25;;;;;;;;;0.33;0.33;;;;;11.65;100.00;100855.84;4973072;28;45658;-77
2023/12/21 12:04:23;;;;;;;;;1.00;0.00;;;;;11.67;100.00;100848.66;5021604;28;45614;-77
2023/12/21 12:14:03;;;;;;;;;1.00;0.00;;;;;11.81;100.00;100867.41;5039522;28;45703;-77
2023/12/21 12:16:34;;;;;;;;;4.33;2.00;;;;;11.83;100.00;100852.28;5017646;28;45507;-77
2023/12/21 12:19:20;;;;;;;;;4.00;2.67;;;;;12.22;100.00;100915.63;5032631;28;45478;-76
2023/12/21 12:22:26;;;;;;;;;;;;;;;;;;;;;
2023/12/21 12:28:33;;;;;;;;;2.33;0.33;;;;;11.90;100.00;100885.47;5011006;28;45588;-76
2023/12/21 12:31:29;;;;;;;;;4.00;1.00;;;;;12.05;100.00;100899.72;5008989;28;45346;-76
2023/12/21 12:37:06;;;;;;;;;3.00;1.00;;;;;12.05;100.00;100910.31;5016935;28;45518;-77
2023/12/21 12:39:32;;;;;;;;;1.67;1.67;;;;;11.86;100.00;100898.03;5000653;28;45580;-77
2023/12/21 12:42:25;;;;;;;;;0.67;0.67;;;;;11.90;100.00;100899.59;4995305;28;46004;-76
2023/12/21 12:45:42;;;;;;;;;;;;;;;;;;;;;
2023/12/21 12:48:37;;;;;;;;;2.00;1.00;;;;;11.62;100.00;100842.72;4990346;28;72876;-76
2023/12/21 13:01:12;;;;;;;;;2.00;1.00;;;;;11.39;100.00;100793.56;5038622;28;45496;-75